This is the latest recevied weather packets stored in our database for station/object PP5MGT-13. If no packets are shown the sender has not sent any weather packets the latest 10 day(s).
| Time | Temp. | Humidity | Pressure | Rain* | Wind** | Luminosity | Snow |
|---|---|---|---|---|---|---|---|
| 1777839627 | 18.89° C | 64% | 1022.3 hPa | - | - | - | - |
| 1777837825 | 18.89° C | 64% | 1022.4 hPa | - | - | - | - |
| 1777836925 | 18.89° C | 64% | 1022.4 hPa | - | - | - | - |
| 1777836024 | 18.89° C | 63% | 1022.4 hPa | - | - | - | - |
| 1777835123 | 18.89° C | 62% | 1022.4 hPa | - | - | - | - |
| 1777833322 | 18.33° C | 66% | 1022.6 hPa | - | - | - | - |
| 1777832421 | 18.33° C | 68% | 1022.7 hPa | - | - | - | - |
| 1777831520 | 18.33° C | 71% | 1022.7 hPa | - | - | - | - |
| 1777830619 | 17.22° C | 74% | 1022.9 hPa | - | - | - | - |
| 1777829719 | 17.22° C | 74% | 1023 hPa | - | - | - | - |
| 1777828818 | 17.22° C | 73% | 1023 hPa | - | - | - | - |
| 1777827917 | 17.22° C | 72% | 1023.1 hPa | - | - | - | - |
| 1777827017 | 17.78° C | 73% | 1023.2 hPa | - | - | - | - |
| 1777826116 | 18.33° C | 73% | 1023.2 hPa | - | - | - | - |
| 1777825215 | 18.33° C | 71% | 1023.2 hPa | - | - | - | - |
| 1777821612 | 18.89° C | 56% | 1024 hPa | - | - | - | - |
| 1777820711 | 18.89° C | 56% | 1024 hPa | - | - | - | - |
| 1777809003 | 17.78° C | 82% | 1022.8 hPa | - | - | - | - |
| 1777807201 | 17.78° C | 84% | 1022.5 hPa | - | - | - | - |
| 1777803598 | 17.78° C | 91% | 1021.7 hPa | - | - | - | - |
| 1777800895 | 17.78° C | 95% | 1020.9 hPa | - | - | - | - |
| 1777796391 | 17.78° C | 94% | 1020 hPa | - | - | - | - |
| 1777794589 | 17.78° C | 94% | 1019.7 hPa | - | - | - | - |
| 1777793688 | 17.78° C | 94% | 1019.7 hPa | - | - | - | - |
| 1777790084 | 17.78° C | 93% | 1019.6 hPa | - | - | - | - |
* Rain since midnight (hover to see other rain measurements)
** Current wind speed in m/s (hover to see current wind gust speed)